createdAt,value
2022-08-03T00:00:42.879Z,18.17
2022-08-03T00:03:11.758Z,17.66
2022-08-03T00:05:40.957Z,17.99
2022-08-03T00:08:31.475Z,18.07
2022-08-03T00:11:02.224Z,18.01
2022-08-03T00:13:30.991Z,17.71
2022-08-03T00:15:59.846Z,17.90
2022-08-03T00:18:28.903Z,17.85
2022-08-03T00:20:57.828Z,17.80
2022-08-03T00:23:29.412Z,17.76
2022-08-03T00:26:17.545Z,17.73
2022-08-03T00:28:46.346Z,17.71
2022-08-03T00:31:15.245Z,17.72
2022-08-03T00:33:59.511Z,17.73
2022-08-03T00:36:29.282Z,17.74
2022-08-03T00:38:58.583Z,17.73
2022-08-03T00:41:28.754Z,16.44
2022-08-03T00:43:57.877Z,17.71
2022-08-03T00:46:26.844Z,17.70
2022-08-03T00:48:55.871Z,16.40
2022-08-03T00:51:25.621Z,17.67
2022-08-03T00:53:54.619Z,17.62
2022-08-03T00:56:23.640Z,17.55
2022-08-03T00:58:58.241Z,17.48
2022-08-03T01:01:27.320Z,17.42
2022-08-03T01:04:01.421Z,17.21
2022-08-03T01:06:44.771Z,17.34
2022-08-03T01:09:23.733Z,17.12
2022-08-03T01:12:02.038Z,16.60
2022-08-03T01:14:48.080Z,17.30
2022-08-03T01:17:27.125Z,17.12
2022-08-03T01:20:03.924Z,17.12
2022-08-03T01:23:11.940Z,17.13
2022-08-03T01:26:04.799Z,16.95
2022-08-03T01:29:05.006Z,17.19
2022-08-03T01:33:00.085Z,17.16
2022-08-03T01:34:42.761Z,16.92
2022-08-03T01:37:17.449Z,17.10
2022-08-03T01:39:47.128Z,17.05
2022-08-03T01:42:19.736Z,17.00
2022-08-03T01:44:52.185Z,16.95
2022-08-03T01:47:25.312Z,16.95
2022-08-03T01:49:57.727Z,16.81
2022-08-03T01:52:28.607Z,16.94
2022-08-03T01:54:59.643Z,16.77
2022-08-03T01:57:31.131Z,16.89
2022-08-03T02:00:06.652Z,16.54
2022-08-03T02:02:45.335Z,16.84
2022-08-03T02:05:17.050Z,16.79
2022-08-03T02:07:49.467Z,16.76
2022-08-03T02:10:34.239Z,16.75
2022-08-03T02:13:08.452Z,16.60
2022-08-03T02:15:39.794Z,16.42
2022-08-03T02:18:12.762Z,16.63
2022-08-03T02:20:44.741Z,16.71
2022-08-03T02:23:14.085Z,16.73
2022-08-03T02:25:55.127Z,16.73
2022-08-03T02:28:33.603Z,16.30
2022-08-03T02:31:08.423Z,16.66
2022-08-03T02:33:45.580Z,16.37
2022-08-03T02:36:17.226Z,16.60
2022-08-03T02:38:53.385Z,16.41
2022-08-03T02:41:31.918Z,16.60
2022-08-03T02:44:09.660Z,15.67
2022-08-03T02:46:44.628Z,16.54
2022-08-03T02:49:42.709Z,16.48
2022-08-03T02:52:15.838Z,16.56
2022-08-03T02:54:49.750Z,16.46
2022-08-03T02:57:19.804Z,16.18
2022-08-03T02:59:49.539Z,16.45
2022-08-03T03:02:20.220Z,16.44
2022-08-03T03:05:51.108Z,16.39
2022-08-03T03:07:52.179Z,16.38
2022-08-03T03:10:24.088Z,16.14
2022-08-03T03:12:57.770Z,16.36
2022-08-03T03:15:29.175Z,16.35
2022-08-03T03:17:59.957Z,16.35
2022-08-03T03:20:32.923Z,16.32
2022-08-03T03:23:02.682Z,16.32
2022-08-03T03:25:34.619Z,16.32
2022-08-03T03:28:06.461Z,16.33
2022-08-03T03:30:36.194Z,15.62
2022-08-03T03:33:05.225Z,16.33
2022-08-03T03:35:39.040Z,16.36
2022-08-03T03:38:08.590Z,16.18
2022-08-03T03:40:37.812Z,16.40
2022-08-03T03:43:10.251Z,16.41
2022-08-03T03:45:39.589Z,16.45
2022-08-03T03:48:12.116Z,16.20
2022-08-03T03:50:42.707Z,16.54
2022-08-03T03:53:13.367Z,16.58
2022-08-03T03:55:57.861Z,16.55
2022-08-03T03:58:32.832Z,16.64
2022-08-03T04:01:02.095Z,16.50
2022-08-03T04:03:31.237Z,16.75
2022-08-03T04:06:19.133Z,16.81
2022-08-03T04:09:08.497Z,16.87
2022-08-03T04:11:44.802Z,16.76
2022-08-03T04:14:19.243Z,16.71
2022-08-03T04:16:52.991Z,17.13
2022-08-03T04:19:31.878Z,17.05
2022-08-03T04:22:06.977Z,17.26
2022-08-03T04:24:42.478Z,16.16
2022-08-03T04:27:17.811Z,17.40
2022-08-03T04:29:52.645Z,17.44
2022-08-03T04:32:25.377Z,17.44
2022-08-03T04:34:54.864Z,17.50
2022-08-03T04:37:36.933Z,17.25
2022-08-03T04:40:11.873Z,17.55
2022-08-03T04:42:43.313Z,16.94
2022-08-03T04:45:16.278Z,17.66
2022-08-03T04:47:45.841Z,17.70
2022-08-03T04:50:18.205Z,17.79
2022-08-03T04:53:08.084Z,17.80
2022-08-03T04:55:37.446Z,17.88
2022-08-03T04:58:07.317Z,17.73
2022-08-03T05:00:36.575Z,18.03
2022-08-03T05:03:23.770Z,18.00
2022-08-03T05:05:53.477Z,18.22
2022-08-03T05:08:46.219Z,17.59
2022-08-03T05:11:16.635Z,18.37
2022-08-03T05:13:45.375Z,18.71
2022-08-03T05:16:15.318Z,18.95
2022-08-03T05:18:45.149Z,19.34
2022-08-03T05:21:16.839Z,19.54
2022-08-03T05:23:47.070Z,19.59
2022-08-03T05:26:15.884Z,19.73
2022-08-03T05:28:51.278Z,19.55
2022-08-03T05:31:20.968Z,19.94
2022-08-03T05:33:49.758Z,20.05
2022-08-03T05:36:18.446Z,20.08
2022-08-03T05:38:48.464Z,20.43
2022-08-03T05:41:21.247Z,20.52
2022-08-03T05:43:54.059Z,20.48
2022-08-03T05:46:23.841Z,20.61
2022-08-03T05:48:53.007Z,20.55
2022-08-03T05:51:22.458Z,20.50
2022-08-03T05:53:52.573Z,20.50
2022-08-03T05:56:25.456Z,20.36
2022-08-03T05:58:54.727Z,20.52
2022-08-03T06:01:23.697Z,20.59
2022-08-03T06:03:53.218Z,20.39
2022-08-03T06:06:23.136Z,20.74
2022-08-03T06:08:53.364Z,20.73
2022-08-03T06:11:22.453Z,20.93
2022-08-03T06:13:51.161Z,21.02
2022-08-03T06:16:19.968Z,21.00
2022-08-03T06:18:48.893Z,21.21
2022-08-03T06:21:17.613Z,21.09
2022-08-03T06:23:54.054Z,21.40
2022-08-03T06:26:29.839Z,21.53
2022-08-03T06:28:59.312Z,21.63
2022-08-03T06:31:32.872Z,21.72
2022-08-03T06:34:32.099Z,21.84
2022-08-03T06:36:57.439Z,22.02
2022-08-03T06:39:30.738Z,22.12
2022-08-03T06:42:00.845Z,22.22
2022-08-03T06:44:29.577Z,22.33
2022-08-03T06:46:58.799Z,22.40
2022-08-03T06:49:27.854Z,22.48
2022-08-03T06:52:03.406Z,22.62
2022-08-03T06:54:33.541Z,22.72
2022-08-03T06:57:03.675Z,22.56
2022-08-03T07:00:10.467Z,22.90
2022-08-03T07:02:21.458Z,23.01
2022-08-03T07:04:50.877Z,23.08
2022-08-03T07:07:20.792Z,23.17
2022-08-03T07:09:57.020Z,23.31
2022-08-03T07:12:29.813Z,23.23
2022-08-03T07:15:01.686Z,23.60
2022-08-03T07:17:34.142Z,23.79
2022-08-03T07:20:07.784Z,23.88
2022-08-03T07:22:37.314Z,23.76
2022-08-03T07:25:07.370Z,24.01
2022-08-03T07:27:38.596Z,24.08
2022-08-03T07:30:09.928Z,24.01
2022-08-03T07:32:50.478Z,24.28
2022-08-03T07:35:25.223Z,24.39
2022-08-03T07:37:55.151Z,24.53
2022-08-03T07:40:30.676Z,24.65
2022-08-03T07:43:04.505Z,24.63
2022-08-03T07:45:35.212Z,24.88
2022-08-03T07:48:10.138Z,24.96
2022-08-03T07:50:42.924Z,24.96
2022-08-03T07:53:12.735Z,24.75
2022-08-03T07:55:43.357Z,25.21
2022-08-03T07:58:21.941Z,25.35
2022-08-03T08:00:56.665Z,25.60
2022-08-03T08:03:27.406Z,25.70
2022-08-03T08:05:58.141Z,25.47
2022-08-03T08:08:31.649Z,25.26
2022-08-03T08:11:02.079Z,25.07
2022-08-03T08:13:36.167Z,25.29
2022-08-03T08:16:14.163Z,26.00
2022-08-03T08:18:49.973Z,24.88
2022-08-03T08:21:22.592Z,26.28
2022-08-03T08:23:57.822Z,26.47
2022-08-03T08:26:28.807Z,26.42
2022-08-03T08:29:00.311Z,26.44
2022-08-03T08:31:30.804Z,26.66
2022-08-03T08:34:05.796Z,26.58
2022-08-03T08:36:38.401Z,26.79
2022-08-03T08:39:07.326Z,26.85
2022-08-03T08:41:37.131Z,26.93
2022-08-03T08:44:10.344Z,26.93
2022-08-03T08:46:42.025Z,27.00
2022-08-03T08:49:14.399Z,27.03
2022-08-03T08:51:59.514Z,27.01
2022-08-03T08:54:34.849Z,27.13
2022-08-03T08:57:26.599Z,27.12
2022-08-03T09:00:00.314Z,27.26
2022-08-03T09:02:33.225Z,27.40
2022-08-03T09:05:07.632Z,27.47
2022-08-03T09:07:38.908Z,27.44
2022-08-03T09:10:13.647Z,27.56
2022-08-03T09:12:47.433Z,27.57
2022-08-03T09:15:26.222Z,27.33
2022-08-03T09:17:58.823Z,27.64
2022-08-03T09:20:33.004Z,27.53
2022-08-03T09:23:24.934Z,27.75
2022-08-03T09:26:02.712Z,27.72
2022-08-03T09:29:00.518Z,27.77
2022-08-03T09:31:37.494Z,28.23
2022-08-03T09:34:08.239Z,28.33
2022-08-03T09:36:39.887Z,28.35
2022-08-03T09:39:12.036Z,28.23
2022-08-03T09:41:42.490Z,28.23
2022-08-03T09:44:24.618Z,28.30
2022-08-03T09:46:57.344Z,28.41
2022-08-03T09:49:26.436Z,28.42
2022-08-03T09:52:31.569Z,28.15
2022-08-03T09:54:46.465Z,28.30
2022-08-03T09:57:26.077Z,28.69
2022-08-03T10:00:08.449Z,28.73
2022-08-03T10:02:45.980Z,28.73
2022-08-03T10:05:17.705Z,28.70
2022-08-03T10:07:50.511Z,28.68
2022-08-03T10:10:31.199Z,28.99
2022-08-03T10:13:02.304Z,28.87
2022-08-03T10:16:23.720Z,28.95
2022-08-03T10:18:21.767Z,29.03
2022-08-03T10:20:56.801Z,29.17
2022-08-03T10:23:27.832Z,29.22
2022-08-03T10:26:04.501Z,29.12
2022-08-03T10:28:44.361Z,29.52
2022-08-03T10:31:15.854Z,29.48
2022-08-03T10:33:53.446Z,29.45
2022-08-03T10:36:25.748Z,29.57
2022-08-03T10:38:57.188Z,29.61
2022-08-03T10:41:34.419Z,29.69
2022-08-03T10:44:09.415Z,29.70
2022-08-03T10:46:44.809Z,29.76
2022-08-03T10:49:20.688Z,29.81
2022-08-03T10:52:11.379Z,29.67
2022-08-03T10:55:03.326Z,29.89
2022-08-03T10:57:58.486Z,29.95
2022-08-03T11:00:30.473Z,29.97
2022-08-03T11:03:12.026Z,30.09
2022-08-03T11:05:44.663Z,30.19
2022-08-03T11:08:35.001Z,30.12
2022-08-03T11:11:29.581Z,30.15
2022-08-03T11:14:02.882Z,30.13
2022-08-03T11:16:35.087Z,30.07
2022-08-03T11:19:07.102Z,30.09
2022-08-03T11:21:59.026Z,30.12
2022-08-03T11:25:04.639Z,30.22
2022-08-03T11:27:34.700Z,30.36
2022-08-03T11:30:08.049Z,30.21
2022-08-03T11:33:01.532Z,30.40
2022-08-03T11:35:33.868Z,30.42
2022-08-03T11:38:10.680Z,30.44
2022-08-03T11:40:45.686Z,30.48
2022-08-03T11:43:48.041Z,30.52
2022-08-03T11:46:29.640Z,30.60
2022-08-03T11:49:10.876Z,30.70
2022-08-03T11:51:41.076Z,30.75
2022-08-03T11:54:11.499Z,30.76
2022-08-03T11:56:49.960Z,30.85
2022-08-03T11:59:22.170Z,30.88
2022-08-03T12:01:52.033Z,30.60
2022-08-03T12:04:20.686Z,30.90
2022-08-03T12:07:04.507Z,31.00
2022-08-03T12:09:36.346Z,31.10
2022-08-03T12:12:05.933Z,31.15
2022-08-03T12:14:49.327Z,31.29
2022-08-03T12:17:20.834Z,31.47
2022-08-03T12:19:49.710Z,31.45
2022-08-03T12:22:31.936Z,31.67
2022-08-03T12:25:02.109Z,31.66
2022-08-03T12:27:30.838Z,31.66
2022-08-03T12:30:03.214Z,31.88
2022-08-03T12:32:32.809Z,31.93
2022-08-03T12:35:04.535Z,31.73
2022-08-03T12:37:33.829Z,31.91
2022-08-03T12:40:10.405Z,32.02
2022-08-03T12:42:41.304Z,31.89
2022-08-03T12:45:25.121Z,32.01
2022-08-03T12:47:57.291Z,32.06
2022-08-03T12:50:31.483Z,32.11
2022-08-03T12:53:01.849Z,32.11
2022-08-03T12:55:56.537Z,31.96
2022-08-03T12:58:35.488Z,32.16
2022-08-03T13:01:09.517Z,32.20
2022-08-03T13:03:49.612Z,32.21
2022-08-03T13:06:21.404Z,32.11
2022-08-03T13:08:51.859Z,32.09
2022-08-03T13:11:53.610Z,31.83
2022-08-03T13:14:20.012Z,31.00
2022-08-03T13:16:49.905Z,32.06
2022-08-03T13:19:18.726Z,32.18
2022-08-03T13:22:03.240Z,32.28
2022-08-03T13:24:34.390Z,32.34
2022-08-03T13:28:01.340Z,32.43
2022-08-03T13:29:56.027Z,32.41
2022-08-03T13:32:25.180Z,32.31
2022-08-03T13:34:53.969Z,32.42
2022-08-03T13:37:23.309Z,32.51
2022-08-03T13:39:58.914Z,32.51
2022-08-03T13:42:32.707Z,32.41
2022-08-03T13:45:02.508Z,32.42
2022-08-03T13:47:31.632Z,32.43
2022-08-03T13:50:02.885Z,32.30
2022-08-03T13:52:34.163Z,32.58
2022-08-03T13:55:05.615Z,32.59
2022-08-03T13:58:02.399Z,32.56
2022-08-03T14:00:29.022Z,32.53
2022-08-03T14:03:06.717Z,32.40
2022-08-03T14:05:41.974Z,32.55
2022-08-03T14:08:11.183Z,32.59
2022-08-03T14:10:43.124Z,32.58
2022-08-03T14:13:17.932Z,32.52
2022-08-03T14:15:49.955Z,32.47
2022-08-03T14:18:29.239Z,32.41
2022-08-03T14:21:06.312Z,32.40
2022-08-03T14:23:37.703Z,32.13
2022-08-03T14:26:07.321Z,32.23
2022-08-03T14:28:37.822Z,31.89
2022-08-03T14:31:08.343Z,31.83
2022-08-03T14:33:55.418Z,32.28
2022-08-03T14:36:24.269Z,32.36
2022-08-03T14:38:54.154Z,32.35
2022-08-03T14:41:24.864Z,32.31
2022-08-03T14:44:00.621Z,32.27
2022-08-03T14:46:31.316Z,32.22
2022-08-03T14:50:34.121Z,32.23
2022-08-03T14:51:53.528Z,31.98
2022-08-03T14:54:23.743Z,32.28
2022-08-03T14:56:52.999Z,32.29
2022-08-03T14:59:22.988Z,31.54
2022-08-03T15:02:02.999Z,32.25
2022-08-03T15:04:35.325Z,32.23
2022-08-03T15:07:04.019Z,32.28
2022-08-03T15:09:33.606Z,32.46
2022-08-03T15:12:02.772Z,32.50
2022-08-03T15:14:33.295Z,32.52
2022-08-03T15:17:03.667Z,31.09
2022-08-03T15:20:02.037Z,32.42
2022-08-03T15:22:25.155Z,32.20
2022-08-03T15:24:56.116Z,32.28
2022-08-03T15:27:26.068Z,32.33
2022-08-03T15:30:07.562Z,32.29
2022-08-03T15:32:38.458Z,32.42
2022-08-03T15:35:07.944Z,32.22
2022-08-03T15:37:36.491Z,32.33
2022-08-03T15:40:06.556Z,32.09
2022-08-03T15:42:35.934Z,31.96
2022-08-03T15:45:08.245Z,31.97
2022-08-03T15:47:37.137Z,32.29
2022-08-03T15:50:09.825Z,32.23
2022-08-03T15:52:38.726Z,31.30
2022-08-03T15:55:08.857Z,32.17
2022-08-03T15:59:03.614Z,32.40
2022-08-03T16:00:33.456Z,32.21
2022-08-03T16:03:03.377Z,32.41
2022-08-03T16:05:32.162Z,32.42
2022-08-03T16:08:04.082Z,32.41
2022-08-03T16:10:33.902Z,32.20
2022-08-03T16:13:02.775Z,32.44
2022-08-03T16:15:33.039Z,32.58
2022-08-03T16:18:07.490Z,32.69
2022-08-03T16:20:36.380Z,32.80
2022-08-03T16:23:11.346Z,32.85
2022-08-03T16:25:42.548Z,32.88
2022-08-03T16:28:15.014Z,32.76
2022-08-03T16:30:47.991Z,32.71
2022-08-03T16:33:18.117Z,32.87
2022-08-03T16:35:49.699Z,32.77
2022-08-03T16:38:19.633Z,32.98
2022-08-03T16:40:52.152Z,32.64
2022-08-03T16:43:23.269Z,32.86
2022-08-03T16:45:54.154Z,33.36
2022-08-03T16:48:22.758Z,32.02
2022-08-03T16:50:51.374Z,33.11
2022-08-03T16:53:51.556Z,33.29
2022-08-03T16:56:10.788Z,33.06
2022-08-03T16:58:42.375Z,32.91
2022-08-03T17:01:21.862Z,32.81
2022-08-03T17:04:01.393Z,32.92
2022-08-03T17:06:37.696Z,32.61
2022-08-03T17:09:09.945Z,33.22
2022-08-03T17:11:47.270Z,33.24
2022-08-03T17:14:21.939Z,33.04
2022-08-03T17:16:58.224Z,32.83
2022-08-03T17:19:28.108Z,32.71
2022-08-03T17:22:04.531Z,32.47
2022-08-03T17:24:37.044Z,32.04
2022-08-03T17:28:42.129Z,31.83
2022-08-03T17:30:10.435Z,31.50
2022-08-03T17:32:52.674Z,31.24
2022-08-03T17:35:36.872Z,31.14
2022-08-03T17:38:13.844Z,31.15
2022-08-03T17:40:48.243Z,31.04
2022-08-03T17:44:13.018Z,30.73
2022-08-03T17:46:10.848Z,30.66
2022-08-03T17:48:42.503Z,30.46
2022-08-03T17:51:17.965Z,30.26
2022-08-03T17:53:54.274Z,30.10
2022-08-03T17:56:42.517Z,29.94
2022-08-03T17:59:50.593Z,30.13
2022-08-03T18:02:50.636Z,30.15
2022-08-03T18:05:22.247Z,30.09
2022-08-03T18:07:59.355Z,30.06
2022-08-03T18:10:49.623Z,29.99
2022-08-03T18:13:25.959Z,30.01
2022-08-03T18:16:04.511Z,30.04
2022-08-03T18:18:40.803Z,29.88
2022-08-03T18:21:16.671Z,29.44
2022-08-03T18:23:50.090Z,29.45
2022-08-03T18:26:21.646Z,29.22
2022-08-03T18:28:53.736Z,29.02
2022-08-03T18:31:33.136Z,28.63
2022-08-03T18:34:32.915Z,28.93
2022-08-03T18:37:08.175Z,28.66
2022-08-03T18:39:49.480Z,27.93
2022-08-03T18:42:26.216Z,28.06
2022-08-03T18:44:56.451Z,27.88
2022-08-03T18:47:55.323Z,27.64
2022-08-03T18:50:35.616Z,27.41
2022-08-03T18:53:19.741Z,27.17
2022-08-03T18:56:02.429Z,26.88
2022-08-03T18:58:52.286Z,26.80
2022-08-03T19:01:59.845Z,26.62
2022-08-03T19:04:35.427Z,26.45
2022-08-03T19:07:08.054Z,26.33
2022-08-03T19:09:49.423Z,26.22
2022-08-03T19:12:30.863Z,26.16
2022-08-03T19:15:10.434Z,25.81
2022-08-03T19:17:50.362Z,25.46
2022-08-03T19:20:25.150Z,26.07
2022-08-03T19:23:13.914Z,26.02
2022-08-03T19:25:44.542Z,26.00
2022-08-03T19:28:13.145Z,26.07
2022-08-03T19:30:53.392Z,25.74
2022-08-03T19:33:25.744Z,25.92
2022-08-03T19:35:59.476Z,25.91
2022-08-03T19:38:29.913Z,25.83
2022-08-03T19:41:03.772Z,25.70
2022-08-03T19:43:52.499Z,25.55
2022-08-03T19:46:30.379Z,25.07
2022-08-03T19:49:04.961Z,25.68
2022-08-03T19:52:00.577Z,25.35
2022-08-03T19:54:52.829Z,25.26
2022-08-03T19:57:27.257Z,25.62
2022-08-03T19:59:57.983Z,25.64
2022-08-03T20:02:29.740Z,25.59
2022-08-03T20:05:02.284Z,25.41
2022-08-03T20:07:34.489Z,25.00
2022-08-03T20:10:08.983Z,24.68
2022-08-03T20:12:41.210Z,25.12
2022-08-03T20:15:11.098Z,24.90
2022-08-03T20:23:37.194Z,24.78
2022-08-03T20:26:09.385Z,24.64
2022-08-03T20:28:50.539Z,24.65
2022-08-03T20:31:30.623Z,24.60
2022-08-03T20:34:06.541Z,24.52
2022-08-03T20:36:36.189Z,24.41
2022-08-03T20:39:07.714Z,24.18
2022-08-03T20:41:38.031Z,24.24
2022-08-03T20:44:09.770Z,24.15
2022-08-03T20:46:50.267Z,23.89
2022-08-03T20:59:02.417Z,23.87
2022-08-03T21:01:36.273Z,23.80
2022-08-03T21:04:11.047Z,23.73
2022-08-03T21:06:53.127Z,23.38
2022-08-03T21:09:33.412Z,23.64
2022-08-03T21:12:17.933Z,23.59
2022-08-03T21:15:00.533Z,23.51
2022-08-03T21:17:42.806Z,23.45
2022-08-03T21:20:14.307Z,23.44
2022-08-03T21:22:50.220Z,23.38
2022-08-03T21:25:24.382Z,23.47
2022-08-03T21:27:53.871Z,23.44
2022-08-03T21:30:25.075Z,23.43
2022-08-03T21:32:57.966Z,23.40
2022-08-03T21:35:27.793Z,23.36
2022-08-03T21:38:10.274Z,22.03
2022-08-03T21:40:40.240Z,23.14
2022-08-03T21:43:09.640Z,23.08
2022-08-03T21:45:49.490Z,23.06
2022-08-03T21:48:21.480Z,23.04
2022-08-03T21:50:53.001Z,22.99
2022-08-03T21:53:22.353Z,22.65
2022-08-03T21:58:32.224Z,22.89
2022-08-03T22:01:05.551Z,22.68
2022-08-03T22:03:54.116Z,22.70
2022-08-03T22:06:23.649Z,22.76
2022-08-03T22:08:57.005Z,22.73
2022-08-03T22:11:26.660Z,22.71
2022-08-03T22:13:55.258Z,22.69
2022-08-03T22:16:24.751Z,22.66
2022-08-03T22:18:54.794Z,22.45
2022-08-03T22:21:36.423Z,22.37
2022-08-03T22:24:07.527Z,22.54
2022-08-03T22:27:04.898Z,22.29
2022-08-03T22:29:35.238Z,22.38
2022-08-03T22:32:04.563Z,22.54
2022-08-03T22:34:35.551Z,22.46
2022-08-03T22:37:08.112Z,22.27
2022-08-03T22:39:40.190Z,22.45
2022-08-03T22:42:09.576Z,22.42
2022-08-03T22:44:38.568Z,22.39
2022-08-03T22:47:07.819Z,22.37
2022-08-03T22:49:39.027Z,22.34
2022-08-03T22:52:11.748Z,22.32
2022-08-03T22:54:41.509Z,22.30
2022-08-03T22:57:10.538Z,21.97
2022-08-03T22:59:42.005Z,22.24
2022-08-03T23:02:20.191Z,22.24
2022-08-03T23:04:56.321Z,22.01
2022-08-03T23:07:33.531Z,22.12
2022-08-03T23:10:05.494Z,22.19
2022-08-03T23:12:37.848Z,22.17
2022-08-03T23:15:10.180Z,22.09
2022-08-03T23:17:58.210Z,22.10
2022-08-03T23:20:29.675Z,21.78
2022-08-03T23:22:59.833Z,22.11
2022-08-03T23:25:29.181Z,22.10
2022-08-03T23:28:05.615Z,22.09
2022-08-03T23:30:38.810Z,22.07
2022-08-03T23:33:10.623Z,21.84
2022-08-03T23:36:28.211Z,22.08
2022-08-03T23:38:50.879Z,21.95
2022-08-03T23:41:20.300Z,22.08
2022-08-03T23:43:53.465Z,22.04
2022-08-03T23:46:24.765Z,21.89
2022-08-03T23:48:56.710Z,21.98
2022-08-03T23:51:40.320Z,21.98
2022-08-03T23:54:25.681Z,21.93
2022-08-03T23:57:07.533Z,21.89
2022-08-03T23:59:50.753Z,21.74
